createdAt,value
2023-07-15T00:00:56.163Z,99.9
2023-07-15T00:03:00.971Z,99.9
2023-07-15T00:05:02.417Z,99.9
2023-07-15T00:11:06.684Z,99.9
2023-07-15T00:13:08.133Z,99.9
2023-07-15T00:15:12.140Z,99.9
2023-07-15T00:19:15.777Z,99.9
2023-07-15T00:21:17.229Z,99.9
2023-07-15T00:23:18.666Z,99.9
2023-07-15T00:25:20.059Z,99.9
2023-07-15T00:27:21.542Z,99.9
2023-07-15T00:29:22.968Z,99.9
2023-07-15T00:31:27.784Z,99.9
2023-07-15T00:33:29.111Z,99.9
2023-07-15T00:35:30.567Z,99.9
2023-07-15T00:36:32.922Z,99.9
2023-07-15T00:50:46.274Z,99.4
2023-07-15T00:54:48.977Z,98.3
2023-07-15T00:56:50.320Z,97.3
2023-07-15T00:58:55.081Z,96
2023-07-15T01:00:56.492Z,95.5
2023-07-15T01:02:57.896Z,95
2023-07-15T01:04:59.197Z,94.7
2023-07-15T01:07:00.520Z,94.3
2023-07-15T01:09:01.921Z,94
2023-07-15T01:11:03.214Z,93.7
2023-07-15T01:13:07.755Z,93.1
2023-07-15T01:15:09.174Z,92.8
2023-07-15T01:17:10.527Z,92.5
2023-07-15T01:19:11.919Z,92.3
2023-07-15T01:21:13.272Z,92
2023-07-15T01:23:14.643Z,91.6
2023-07-15T01:25:16.089Z,90.8
2023-07-15T01:27:20.680Z,88.9
2023-07-15T01:29:22.016Z,87.9
2023-07-15T01:31:23.348Z,87.2
2023-07-15T01:43:55.849Z,78.8
2023-07-15T01:45:57.105Z,77.5
2023-07-15T01:47:58.531Z,76.1
2023-07-15T01:49:59.922Z,76
2023-07-15T01:52:01.233Z,75.6
2023-07-15T01:56:07.187Z,74.6
2023-07-15T01:58:08.459Z,74.6
2023-07-15T02:00:09.740Z,74.4
2023-07-15T02:02:11.282Z,74.3
2023-07-15T02:04:12.578Z,74.2
2023-07-15T02:06:14.035Z,74.2
2023-07-15T02:08:18.355Z,74.1
2023-07-15T02:10:19.655Z,74.2
2023-07-15T02:14:22.191Z,74.6
2023-07-15T02:16:23.531Z,74.8
2023-07-15T02:18:24.744Z,75.1
2023-07-15T02:20:26.044Z,75.4
2023-07-15T02:22:30.679Z,76.1
2023-07-15T02:24:31.940Z,76.3
2023-07-15T02:26:33.275Z,76.5
2023-07-15T02:27:35.539Z,76.8
2023-07-15T02:29:36.922Z,77.1
2023-07-15T02:33:39.486Z,77.6
2023-07-15T02:37:45.499Z,78.1
2023-07-15T02:39:46.868Z,78.1
2023-07-15T02:41:48.152Z,77.7
2023-07-15T02:43:49.439Z,77.5
2023-07-15T02:45:50.698Z,77.2
2023-07-15T02:47:52.052Z,77.1
2023-07-15T02:49:56.714Z,77
2023-07-15T02:51:58.000Z,77.2
2023-07-15T02:53:59.330Z,77.3
2023-07-15T02:56:00.701Z,77.5
2023-07-15T03:02:04.808Z,77.5
2023-07-15T03:04:09.474Z,77.7
2023-07-15T03:06:10.896Z,77.9
2023-07-15T03:12:14.908Z,77.6
2023-07-15T03:14:16.261Z,77.6
2023-07-15T03:16:17.880Z,77.6
2023-07-15T03:18:22.237Z,77.6
2023-07-15T03:20:23.554Z,77.8
2023-07-15T03:22:24.903Z,78.1
2023-07-15T03:23:27.196Z,78.4
2023-07-15T03:53:53.892Z,83.1
2023-07-15T04:00:01.201Z,84.4
2023-07-15T04:02:02.632Z,84.8
2023-07-15T04:04:03.928Z,85
2023-07-15T04:08:06.665Z,85.3
2023-07-15T04:10:08.076Z,85.6
2023-07-15T04:12:09.514Z,86.3
2023-07-15T04:14:14.124Z,87.2
2023-07-15T04:16:16.001Z,87.5
2023-07-15T04:18:16.889Z,87.7
2023-07-15T04:19:19.301Z,88.3
2023-07-15T04:25:23.390Z,89.1
2023-07-15T04:29:29.366Z,89
2023-07-15T04:31:30.801Z,88.7
2023-07-15T04:33:32.113Z,88.5
2023-07-15T04:35:33.488Z,88.6
2023-07-15T04:39:37.681Z,88.7
2023-07-15T04:41:42.341Z,89.2
2023-07-15T04:43:43.660Z,89.5
2023-07-15T04:45:45.150Z,89.7
2023-07-15T04:47:46.618Z,89.9
2023-07-15T04:49:47.906Z,90.2
2023-07-15T04:51:49.300Z,90.4
2023-07-15T04:53:50.623Z,89.3
2023-07-15T04:59:57.969Z,81.5
2023-07-15T05:01:59.399Z,81.2
2023-07-15T05:08:03.370Z,78.6
2023-07-15T05:10:07.938Z,76.9
2023-07-15T05:12:09.251Z,76.3
2023-07-15T05:16:31.256Z,74.9
2023-07-15T05:18:32.636Z,74.6
2023-07-15T05:20:33.990Z,74.1
2023-07-15T05:22:38.492Z,73.4
2023-07-15T05:24:39.714Z,73.2
2023-07-15T05:26:40.989Z,73.1
2023-07-15T05:28:42.278Z,72.8
2023-07-15T05:30:43.486Z,72.4
2023-07-15T05:32:44.827Z,72
2023-07-15T05:36:50.591Z,69.6
2023-07-15T05:38:51.828Z,69.5
2023-07-15T05:42:54.332Z,69.3
2023-07-15T05:44:55.592Z,69.2
2023-07-15T05:48:58.117Z,69.2
2023-07-15T05:55:05.034Z,69.8
2023-07-15T05:57:06.271Z,69.1
2023-07-15T05:59:07.512Z,67.9
2023-07-15T06:01:08.735Z,68.2
2023-07-15T06:05:14.366Z,67.6
2023-07-15T06:07:15.566Z,67.5
2023-07-15T06:09:16.781Z,68
2023-07-15T06:10:19.008Z,67.9
2023-07-15T06:16:22.566Z,69.6
2023-07-15T06:26:31.778Z,71.3
2023-07-15T06:32:38.575Z,73.9
2023-07-15T06:34:39.678Z,74.4
2023-07-15T06:36:40.850Z,74.8
2023-07-15T06:38:42.046Z,75.9
2023-07-15T06:42:44.338Z,76.3
2023-07-15T06:44:45.616Z,76.4
2023-07-15T06:46:49.985Z,76.2
2023-07-15T06:48:51.115Z,75.3
2023-07-15T06:50:52.268Z,75.4
2023-07-15T06:52:53.430Z,75.1
2023-07-15T06:54:54.603Z,74.8
2023-07-15T06:58:56.932Z,74.7
2023-07-15T07:01:01.346Z,74.3
2023-07-15T07:05:03.589Z,74.5
2023-07-15T07:06:05.807Z,75.2
2023-07-15T07:10:08.083Z,75.2
2023-07-15T07:12:09.234Z,75.1
2023-07-15T07:14:13.625Z,75.1
2023-07-15T07:16:14.816Z,75.2
2023-07-15T07:18:16.008Z,75.7
2023-07-15T07:20:17.052Z,75.8
2023-07-15T07:22:18.172Z,75.9
2023-07-15T07:24:19.323Z,76
2023-07-15T07:26:20.432Z,75.8
2023-07-15T07:28:24.846Z,75.4
2023-07-15T07:30:26.101Z,75.6
2023-07-15T07:32:27.085Z,75.4
2023-07-15T07:34:28.208Z,75.5
2023-07-15T07:36:29.378Z,75.4
2023-07-15T07:38:30.463Z,75.5
2023-07-15T07:42:35.927Z,76
2023-07-15T07:44:37.066Z,76.3
2023-07-15T07:46:38.286Z,76.5
2023-07-15T07:54:42.634Z,79.9
2023-07-15T07:56:47.032Z,79.4
2023-07-15T07:58:48.164Z,78.8
2023-07-15T08:00:49.291Z,78.6
2023-07-15T08:01:51.456Z,74.3
2023-07-15T08:03:52.627Z,74.7
2023-07-15T08:05:53.646Z,74.8
2023-07-15T08:09:59.120Z,77.3
2023-07-15T08:12:00.270Z,79.4
2023-07-15T08:14:01.281Z,79.8
2023-07-15T08:16:02.471Z,80.6
2023-07-15T08:18:03.529Z,81.6
2023-07-15T08:20:04.617Z,81.8
2023-07-15T08:38:20.970Z,79
2023-07-15T08:42:23.170Z,79.6
2023-07-15T08:46:25.356Z,78.1
2023-07-15T08:50:27.493Z,76.3
2023-07-15T08:52:31.870Z,76
2023-07-15T08:54:32.938Z,75.7
2023-07-15T08:56:34.002Z,75.5
2023-07-15T09:05:02.908Z,73.4
2023-07-15T09:09:04.966Z,74
2023-07-15T09:15:08.165Z,75.2
2023-07-15T09:17:09.213Z,75.5
2023-07-15T09:23:15.694Z,77.1
2023-07-15T09:25:16.793Z,77.5
2023-07-15T09:27:17.832Z,78
2023-07-15T09:29:18.878Z,78.9
2023-07-15T09:31:20.069Z,78.9
2023-07-15T09:33:24.308Z,79.7
2023-07-15T09:35:25.387Z,79.8
2023-07-15T09:37:26.453Z,79.3
2023-07-15T09:39:27.557Z,79.5
2023-07-15T09:49:36.289Z,80.5
2023-07-15T09:51:37.376Z,80.7
2023-07-15T09:52:39.566Z,81
2023-07-15T09:56:41.780Z,81.4
2023-07-15T09:58:42.893Z,82
2023-07-15T10:00:47.267Z,82.8
2023-07-15T10:02:48.393Z,82.8
2023-07-15T10:04:49.475Z,82.7
2023-07-15T10:06:50.605Z,82.7
2023-07-15T10:08:51.736Z,76.3
2023-07-15T10:10:52.838Z,76.4
2023-07-15T10:14:58.317Z,80.6
2023-07-15T10:19:00.576Z,81
2023-07-15T10:21:01.692Z,81.3
2023-07-15T10:25:03.944Z,81.9
2023-07-15T10:27:06.648Z,82.2
2023-07-15T10:29:10.949Z,82.3
2023-07-15T10:31:12.126Z,82.6
2023-07-15T10:33:13.298Z,82.7
2023-07-15T10:35:14.309Z,82.6
2023-07-15T10:39:16.591Z,83.2
2023-07-15T10:45:23.285Z,83.6
2023-07-15T10:47:24.532Z,83.5
2023-07-15T10:48:26.645Z,83.8
2023-07-15T11:16:49.438Z,90.3
2023-07-15T11:28:59.716Z,89.3
2023-07-15T11:35:05.163Z,86
2023-07-15T11:37:04.411Z,85
2023-07-15T11:39:08.800Z,82.2
2023-07-15T11:41:09.996Z,80.8
2023-07-15T11:43:11.172Z,80.9
2023-07-15T11:44:13.353Z,80.7
2023-07-15T11:46:14.704Z,80.4
2023-07-15T11:50:16.829Z,81.2
2023-07-15T11:52:21.263Z,81.2
2023-07-15T12:02:29.211Z,78.3
2023-07-15T12:04:28.246Z,77.6
2023-07-15T12:06:32.510Z,76.7
2023-07-15T12:10:34.762Z,75.2
2023-07-15T12:16:38.291Z,74.2
2023-07-15T12:18:39.362Z,73.9
2023-07-15T12:22:44.905Z,71.9
2023-07-15T12:24:46.012Z,71.8
2023-07-15T12:26:47.144Z,71.8
2023-07-15T12:28:48.371Z,72.2
2023-07-15T12:30:49.401Z,72.3
2023-07-15T12:32:50.513Z,72.4
2023-07-15T12:38:57.214Z,73
2023-07-15T12:41:19.535Z,73.1
2023-07-15T12:43:20.566Z,73.1
2023-07-15T12:47:26.881Z,71.9
2023-07-15T12:49:27.954Z,71.2
2023-07-15T12:51:29.070Z,70.6
2023-07-15T12:53:30.200Z,70.1
2023-07-15T12:55:31.289Z,69.8
2023-07-15T12:57:32.414Z,69.3
2023-07-15T12:59:33.500Z,69.1
2023-07-15T13:01:37.866Z,68.2
2023-07-15T13:05:40.032Z,66.9
2023-07-15T13:09:44.880Z,65.5
2023-07-15T13:11:43.304Z,64.9
2023-07-15T13:13:45.272Z,64.4
2023-07-15T13:17:49.906Z,64.3
2023-07-15T13:19:50.898Z,64.3
2023-07-15T13:21:52.017Z,64.2
2023-07-15T13:23:53.037Z,64.8
2023-07-15T13:25:54.071Z,64.6
2023-07-15T13:27:55.164Z,66
2023-07-15T13:29:59.495Z,66.2
2023-07-15T13:32:00.555Z,65.9
2023-07-15T13:34:01.613Z,66.4
2023-07-15T13:35:03.795Z,66.3
2023-07-15T13:39:05.920Z,66.2
2023-07-15T13:41:06.972Z,66.1
2023-07-15T13:45:12.332Z,66.1
2023-07-15T13:49:14.434Z,65.4
2023-07-15T13:51:15.703Z,65.2
2023-07-15T13:53:16.534Z,65.3
2023-07-15T13:55:17.571Z,66.2
2023-07-15T13:57:21.889Z,66.9
2023-07-15T13:59:22.918Z,66.9
2023-07-15T14:01:23.999Z,66.7
2023-07-15T14:09:28.076Z,66.9
2023-07-15T14:11:32.369Z,67.8
2023-07-15T14:15:34.478Z,68.5
2023-07-15T14:17:35.535Z,68.4
2023-07-15T14:19:36.535Z,68.4
2023-07-15T14:21:37.543Z,68.1
2023-07-15T14:23:38.635Z,68.2
2023-07-15T14:25:42.908Z,67.8
2023-07-15T14:27:43.973Z,67.6
2023-07-15T14:29:45.001Z,67.4
2023-07-15T14:30:47.152Z,67.2
2023-07-15T14:32:48.241Z,66.9
2023-07-15T14:34:49.234Z,66.4
2023-07-15T14:36:50.270Z,66.3
2023-07-15T14:38:54.578Z,66
2023-07-15T14:40:55.636Z,66.2
2023-07-15T14:42:56.657Z,65.9
2023-07-15T14:44:57.712Z,65.8
2023-07-15T14:46:58.848Z,65.7
2023-07-15T14:48:59.808Z,65.4
2023-07-15T14:51:00.851Z,65.6
2023-07-15T14:53:05.143Z,65.3
2023-07-15T14:55:06.180Z,65.7
2023-07-15T14:57:07.236Z,65.7
2023-07-15T14:59:08.268Z,65.7
2023-07-15T15:01:09.336Z,65.9
2023-07-15T15:03:10.462Z,66.2
2023-07-15T15:05:11.405Z,66.6
2023-07-15T15:07:15.712Z,66.9
2023-07-15T15:19:21.998Z,66.8
2023-07-15T15:21:26.273Z,66
2023-07-15T15:26:30.469Z,62.8
2023-07-15T15:28:31.510Z,62.2
2023-07-15T15:30:32.542Z,62.2
2023-07-15T15:32:33.706Z,61.7
2023-07-15T15:34:37.977Z,61.2
2023-07-15T15:36:41.022Z,61
2023-07-15T15:38:39.895Z,61.2
2023-07-15T15:40:40.947Z,61.3
2023-07-15T15:42:42.393Z,61.4
2023-07-15T15:44:43.011Z,61.3
2023-07-15T15:46:44.072Z,61.4
2023-07-15T15:48:48.358Z,62.3
2023-07-15T15:50:49.420Z,62.7
2023-07-15T15:52:50.442Z,63.8
2023-07-15T15:54:51.467Z,64.1
2023-07-15T15:56:52.552Z,64.6
2023-07-15T15:58:53.607Z,64.9
2023-07-15T16:02:59.251Z,65.7
2023-07-15T16:05:00.105Z,65.9
2023-07-15T16:07:01.245Z,66.2
2023-07-15T16:09:02.275Z,66.2
2023-07-15T16:11:03.379Z,66.3
2023-07-15T16:15:05.592Z,66
2023-07-15T16:17:11.464Z,79.6
2023-07-15T16:19:12.554Z,78.5
2023-07-15T16:21:14.077Z,78.9
2023-07-15T16:23:29.826Z,80.8
2023-07-15T16:25:30.950Z,82.4
2023-07-15T16:27:32.169Z,86.9
2023-07-15T16:29:36.458Z,88.5
2023-07-15T16:31:39.787Z,89.2
2023-07-15T16:33:38.793Z,90.3
2023-07-15T16:35:39.990Z,91.1
2023-07-15T16:37:41.170Z,92.1
2023-07-15T16:39:42.369Z,93.6
2023-07-15T16:41:43.526Z,93.9
2023-07-15T16:43:48.004Z,96.4
2023-07-15T16:45:49.236Z,98
2023-07-15T16:47:50.495Z,98.3
2023-07-15T16:49:51.799Z,98.7
2023-07-15T16:51:53.149Z,99.3
2023-07-15T16:58:00.432Z,99.9
2023-07-15T17:04:04.478Z,99.9
2023-07-15T17:08:07.125Z,99.9
2023-07-15T17:10:08.474Z,99.9
2023-07-15T17:14:14.418Z,99.9
2023-07-15T17:16:15.811Z,99.9
2023-07-15T17:17:18.023Z,99.9
2023-07-15T17:19:19.337Z,99.9
2023-07-15T17:23:21.979Z,99.9
2023-07-15T17:25:26.512Z,99.9
2023-07-15T17:29:29.202Z,99.9
2023-07-15T17:31:30.527Z,99.9
2023-07-15T17:39:38.996Z,99.9
2023-07-15T17:41:40.288Z,99.9
2023-07-15T17:43:41.701Z,99.9
2023-07-15T17:45:43.160Z,99.9
2023-07-15T18:05:57.714Z,99.9
2023-07-15T18:15:08.916Z,99.9
2023-07-15T18:17:10.252Z,99.9
2023-07-15T18:19:11.626Z,99.7
2023-07-15T18:23:17.445Z,99.7
2023-07-15T18:25:18.727Z,99.7
2023-07-15T18:29:21.442Z,99.9
2023-07-15T18:31:22.685Z,99.9
2023-07-15T18:33:23.952Z,99.9
2023-07-15T18:35:28.474Z,99.9
2023-07-15T18:37:29.770Z,99.9
2023-07-15T18:39:31.193Z,99.9
2023-07-15T18:43:33.842Z,99.9
2023-07-15T18:49:41.049Z,99.9
2023-07-15T18:51:42.365Z,99.9
2023-07-15T19:01:49.363Z,99.9
2023-07-15T19:07:56.911Z,99.9
2023-07-15T19:08:59.255Z,99.9
2023-07-15T19:21:11.168Z,99.9
2023-07-15T19:35:24.448Z,99.9
2023-07-15T19:37:25.936Z,99.9
2023-07-15T19:39:27.345Z,99.9
2023-07-15T19:41:28.770Z,99.9
2023-07-15T19:45:34.960Z,99.9
2023-07-15T19:47:36.435Z,99.9
2023-07-15T19:51:45.806Z,99.9
2023-07-15T20:03:51.132Z,99.9
2023-07-15T20:10:16.987Z,99.9
2023-07-15T20:14:23.163Z,99.9
2023-07-15T20:26:35.125Z,99.9
2023-07-15T20:34:40.874Z,99.9
2023-07-15T20:40:56.389Z,99.9
2023-07-15T20:42:49.941Z,99.9
2023-07-15T20:44:51.374Z,99.9
2023-07-15T20:46:52.884Z,99.9
2023-07-15T20:48:54.275Z,99.9
2023-07-15T20:59:04.785Z,99.9
2023-07-15T21:00:07.206Z,99.9
2023-07-15T21:02:08.717Z,99.9
2023-07-15T21:06:11.503Z,99.9
2023-07-15T21:08:16.274Z,99.9
2023-07-15T21:14:20.566Z,99.9
2023-07-15T21:20:24.867Z,99.9
2023-07-15T21:22:29.686Z,99.9
2023-07-15T21:24:31.074Z,99.9
2023-07-15T21:26:32.502Z,99.9
2023-07-15T21:36:43.069Z,99.9
2023-07-15T21:38:44.485Z,99.9
2023-07-15T21:40:45.940Z,99.9
2023-07-15T21:42:47.380Z,99.9
2023-07-15T21:50:56.492Z,99.9
2023-07-15T21:54:59.355Z,99.9
2023-07-15T21:56:01.736Z,99.9
2023-07-15T21:58:03.190Z,99.9
2023-07-15T22:00:04.652Z,99.9
2023-07-15T22:02:06.119Z,99.9
2023-07-15T22:04:10.878Z,99.9
2023-07-15T22:06:14.044Z,99.9
2023-07-15T22:08:15.270Z,99.9
2023-07-15T22:10:16.665Z,99.9
2023-07-15T22:12:18.118Z,99.9
2023-07-15T22:14:19.607Z,99.9
2023-07-15T22:16:21.070Z,99.9
2023-07-15T22:18:38.388Z,99.9
2023-07-15T22:20:27.262Z,99.9
2023-07-15T22:22:28.700Z,99.9
2023-07-15T22:24:30.126Z,99.9
2023-07-15T22:26:31.553Z,99.9
2023-07-15T22:32:39.276Z,99.9
2023-07-15T22:38:43.561Z,99.9
2023-07-15T22:40:45.002Z,99.9
2023-07-15T22:42:46.438Z,99.9
2023-07-15T22:51:57.944Z,99.9
2023-07-15T22:53:59.387Z,99.9
2023-07-15T22:56:00.850Z,99.9
2023-07-15T22:58:02.271Z,99.9
2023-07-15T23:04:09.984Z,99.9
2023-07-15T23:06:11.379Z,99.9
2023-07-15T23:08:12.838Z,99.9
2023-07-15T23:10:14.334Z,99.9
2023-07-15T23:12:15.755Z,99.9
2023-07-15T23:14:20.495Z,99.9
2023-07-15T23:26:29.243Z,99.9
2023-07-15T23:40:42.717Z,99.9
2023-07-15T23:42:47.494Z,99.9
2023-07-15T23:44:48.903Z,99.9
2023-07-15T23:46:50.469Z,99.9
2023-07-15T23:49:13.397Z,99.9
